Time;durP1;ratioP1;P1;durP2;ratioP2;P2;SDS_P1;SDS_P2;PMS_P1;PMS_P2;Temp;Humidity;BMP_temperature;BMP_pressure;BME280_temperature;BME280_humidity;BME280_pressure;Samples;Min_cycle;Max_cycle;Signal;HPM_P1;HPM_P2
2021/07/02 00:02:09;;;;;;;6.33;5.13;;;;;;;12.06;100.00;96012.75;5031933;28;20847;-76
2021/07/02 00:04:35;;;;;;;5.37;4.77;;;;;;;12.10;100.00;95997.81;5030372;28;20415;-76
2021/07/02 00:07:01;;;;;;;5.00;4.20;;;;;;;12.20;100.00;96003.22;5031625;28;20510;-76
2021/07/02 00:09:27;;;;;;;6.10;3.97;;;;;;;12.27;100.00;96007.94;5031822;28;20402;-76
2021/07/02 00:11:53;;;;;;;6.67;4.50;;;;;;;12.30;100.00;96001.69;5031700;28;20498;-76
2021/07/02 00:14:18;;;;;;;5.43;4.80;;;;;;;12.27;100.00;95997.53;5031543;28;20407;-76
2021/07/02 00:16:44;;;;;;;9.90;4.50;;;;;;;12.34;100.00;95998.78;5030081;28;20829;-76
2021/07/02 00:19:09;;;;;;;5.27;4.50;;;;;;;12.40;100.00;95999.31;5031446;28;20411;-76
2021/07/02 00:21:34;;;;;;;4.97;4.45;;;;;;;12.33;100.00;95997.13;5031388;28;20427;-76
2021/07/02 00:24:00;;;;;;;8.10;4.67;;;;;;;12.22;100.00;95997.00;5031259;28;20812;-76
2021/07/02 00:26:27;;;;;;;5.27;4.33;;;;;;;12.07;100.00;95990.22;5031276;28;20545;-76
2021/07/02 00:28:52;;;;;;;5.30;4.22;;;;;;;11.91;100.00;95990.38;5029927;28;20414;-76
2021/07/02 00:31:18;;;;;;;7.67;4.43;;;;;;;11.82;100.00;95994.34;5031342;28;20477;-76
2021/07/02 00:33:44;;;;;;;7.93;4.20;;;;;;;11.94;100.00;95994.53;5034198;28;20415;-76
2021/07/02 00:36:09;;;;;;;4.80;4.30;;;;;;;12.00;100.00;95996.72;5040069;28;20473;-76
2021/07/02 00:38:34;;;;;;;5.77;4.43;;;;;;;12.13;100.00;95989.81;5040028;28;20414;-76
2021/07/02 00:41:00;;;;;;;5.23;4.50;;;;;;;12.18;100.00;95987.75;5035345;28;20430;-75
2021/07/02 00:43:26;;;;;;;4.87;4.47;;;;;;;12.21;100.00;95984.94;5032993;28;21027;-76
2021/07/02 00:45:52;;;;;;;6.53;4.25;;;;;;;12.14;100.00;95975.91;5031912;28;20413;-76
2021/07/02 00:48:17;;;;;;;4.80;3.80;;;;;;;12.11;100.00;95979.53;5029975;28;20419;-76
2021/07/02 00:50:44;;;;;;;6.80;4.38;;;;;;;12.19;100.00;95983.38;5030922;28;20419;-75
2021/07/02 00:53:10;;;;;;;5.30;4.43;;;;;;;12.17;100.00;95985.25;5031325;28;20476;-76
2021/07/02 00:55:36;;;;;;;6.20;4.43;;;;;;;12.19;100.00;95983.38;5030784;28;20418;-76
2021/07/02 00:58:03;;;;;;;7.53;4.17;;;;;;;12.22;100.00;95978.81;5031207;28;20407;-76
2021/07/02 01:00:30;;;;;;;9.40;4.10;;;;;;;12.20;100.00;95980.69;5029882;28;20425;-76
2021/07/02 01:02:56;;;;;;;9.88;4.43;;;;;;;12.29;100.00;95985.28;5031109;28;20423;-76
2021/07/02 01:05:21;;;;;;;6.78;4.55;;;;;;;12.34;100.00;95983.19;5029422;28;20407;-76
2021/07/02 01:07:47;;;;;;;8.73;4.20;;;;;;;12.25;100.00;95982.97;5029565;28;20465;-76
2021/07/02 01:10:16;;;;;;;5.83;4.20;;;;;;;12.22;100.00;95983.19;5029625;28;20414;-76
2021/07/02 01:12:42;;;;;;;7.68;4.53;;;;;;;12.02;100.00;95992.28;5030962;28;20411;-76
2021/07/02 01:15:18;;;;;;;4.95;4.18;;;;;;;12.08;100.00;95984.91;5030648;28;20454;-76
2021/07/02 01:17:45;;;;;;;9.65;4.47;;;;;;;12.10;100.00;95990.00;5030751;28;20784;-76
2021/07/02 01:20:11;;;;;;;4.35;3.95;;;;;;;12.06;100.00;95985.97;5029352;28;20427;-76
2021/07/02 01:22:39;;;;;;;5.43;4.47;;;;;;;12.04;100.00;95986.03;5031062;28;20418;-76
2021/07/02 01:25:05;;;;;;;5.10;4.38;;;;;;;12.06;100.00;95980.75;5029748;28;20422;-76
2021/07/02 01:27:30;;;;;;;5.87;4.90;;;;;;;12.04;99.88;95987.81;5030591;28;20423;-76
2021/07/02 01:29:56;;;;;;;8.07;4.80;;;;;;;11.96;100.00;95985.72;5029780;28;20943;-76
2021/07/02 01:32:21;;;;;;;5.87;4.50;;;;;;;11.80;100.00;95988.44;5030535;28;20905;-76
2021/07/02 01:34:47;;;;;;;7.67;4.63;;;;;;;11.57;100.00;95976.94;5030554;28;20857;-76
2021/07/02 01:37:12;;;;;;;4.97;4.47;;;;;;;11.55;100.00;95980.56;5030354;28;20422;-75
2021/07/02 01:39:39;;;;;;;5.55;4.65;;;;;;;11.50;100.00;95982.63;5030442;28;20407;-76
2021/07/02 01:42:06;;;;;;;6.60;4.47;;;;;;;11.58;100.00;95990.75;5030399;28;20515;-76
2021/07/02 01:44:31;;;;;;;6.00;5.07;;;;;;;11.58;100.00;95986.38;5030340;28;20419;-76
2021/07/02 01:46:57;;;;;;;3.60;3.00;;;;;;;11.63;99.24;95981.72;5033112;28;20453;-76
2021/07/02 01:49:22;;;;;;;2.90;2.03;;;;;;;11.54;96.29;95984.91;5034354;28;20461;-77
2021/07/02 01:51:48;;;;;;;2.90;2.30;;;;;;;11.51;94.80;95992.06;5034235;28;20406;-76
2021/07/02 01:54:13;;;;;;;4.15;2.40;;;;;;;11.35;95.80;95981.81;5034241;28;20410;-76
2021/07/02 01:56:47;;;;;;;7.07;3.03;;;;;;;11.15;97.64;95983.84;5033969;28;20419;-76
2021/07/02 01:59:13;;;;;;;7.18;3.47;;;;;;;11.02;99.34;95980.38;5034099;28;20445;-75
2021/07/02 02:01:38;;;;;;;4.07;3.67;;;;;;;10.93;99.94;95972.31;5034066;28;20506;-76
2021/07/02 02:04:04;;;;;;;4.47;3.60;;;;;;;10.84;100.00;95974.53;5033923;28;20414;-76
2021/07/02 02:06:29;;;;;;;4.83;3.47;;;;;;;10.75;100.00;95977.66;5033700;28;20414;-76
2021/07/02 02:08:55;;;;;;;4.60;4.07;;;;;;;10.78;100.00;95971.47;5033985;28;20414;-76
2021/07/02 02:11:21;;;;;;;5.85;3.70;;;;;;;10.87;100.00;95976.13;5032910;28;20505;-75
2021/07/02 02:13:48;;;;;;;4.28;3.72;;;;;;;10.84;100.00;95977.13;5033795;28;20446;-76
2021/07/02 02:16:13;;;;;;;6.05;3.97;;;;;;;10.81;100.00;95964.34;5033534;28;20406;-76
2021/07/02 02:18:38;;;;;;;8.48;4.25;;;;;;;10.66;100.00;95978.25;5033894;28;20442;-76
2021/07/02 02:21:04;;;;;;;5.07;4.30;;;;;;;10.64;100.00;95980.06;5033637;28;20502;-76
2021/07/02 02:23:29;;;;;;;5.60;4.50;;;;;;;10.67;100.00;95979.91;5032426;28;20450;-75
2021/07/02 02:25:54;;;;;;;4.60;4.17;;;;;;;10.76;100.00;95970.75;5033301;28;20967;-76
2021/07/02 02:28:20;;;;;;;6.60;4.70;;;;;;;10.75;100.00;95969.91;5033490;28;20418;-76
2021/07/02 02:30:47;;;;;;;7.05;4.72;;;;;;;10.83;100.00;95974.66;5033516;28;20437;-76
2021/07/02 02:33:12;;;;;;;5.70;4.45;;;;;;;10.79;100.00;95966.22;5032237;28;20517;-76
2021/07/02 02:35:38;;;;;;;5.03;4.25;;;;;;;10.81;100.00;95966.94;5031962;28;20509;-76
2021/07/02 02:38:03;;;;;;;5.63;4.43;;;;;;;10.88;100.00;95963.06;5032201;28;20465;-76
2021/07/02 02:40:28;;;;;;;7.35;4.10;;;;;;;10.90;100.00;95969.00;5033194;28;20423;-76
2021/07/02 02:42:54;;;;;;;7.27;4.93;;;;;;;10.84;100.00;95971.13;5033375;28;20439;-75
2021/07/02 02:45:20;;;;;;;6.30;4.77;;;;;;;10.87;100.00;95971.78;5031721;28;20932;-76
2021/07/02 02:47:46;;;;;;;4.00;3.70;;;;;;;10.84;100.00;95966.78;5033541;28;20415;-76
2021/07/02 02:50:12;;;;;;;4.50;4.10;;;;;;;10.90;100.00;95974.19;5033251;28;20446;-76
2021/07/02 02:52:37;;;;;;;8.97;4.73;;;;;;;10.81;100.00;95979.06;5033219;28;20737;-76
2021/07/02 02:55:03;;;;;;;6.20;4.60;;;;;;;10.90;100.00;95979.38;5033107;28;20414;-76
2021/07/02 02:57:28;;;;;;;5.05;4.55;;;;;;;10.95;100.00;95980.84;5031699;28;20423;-76
2021/07/02 02:59:54;;;;;;;6.17;4.47;;;;;;;10.99;100.00;95977.97;5032996;28;20415;-76
2021/07/02 03:02:19;;;;;;;5.20;4.70;;;;;;;11.02;100.00;95982.97;5033150;28;20970;-75
2021/07/02 03:04:46;;;;;;;5.97;4.50;;;;;;;11.13;100.00;95982.31;5032844;28;20509;-77
2021/07/02 03:07:11;;;;;;;6.40;4.65;;;;;;;11.07;100.00;95977.50;5032740;28;20445;-77
2021/07/02 03:09:37;;;;;;;7.53;5.23;;;;;;;10.86;100.00;95985.66;5032918;28;20415;-77
2021/07/02 03:12:03;;;;;;;6.00;5.17;;;;;;;10.82;100.00;95981.56;5032924;28;20411;-76
2021/07/02 03:14:29;;;;;;;7.50;4.88;;;;;;;10.75;100.00;95987.22;5032544;28;20470;-75
2021/07/02 03:16:54;;;;;;;5.15;4.68;;;;;;;10.82;100.00;95984.16;5032499;28;20419;-76
2021/07/02 03:19:20;;;;;;;5.45;4.88;;;;;;;10.73;100.00;95982.13;5031561;28;20462;-76
2021/07/02 03:21:48;;;;;;;5.78;4.72;;;;;;;10.87;100.00;95981.31;5032676;28;20431;-76
2021/07/02 03:24:14;;;;;;;4.68;4.25;;;;;;;10.95;100.00;95988.63;5031138;28;20462;-76
2021/07/02 03:26:39;;;;;;;5.37;4.57;;;;;;;10.87;100.00;95991.66;5032431;28;20500;-75
2021/07/02 03:29:05;;;;;;;4.82;4.22;;;;;;;10.84;100.00;95987.50;5031216;28;20423;-76
2021/07/02 03:31:31;;;;;;;4.82;3.50;;;;;;;10.86;98.01;95992.56;5032613;28;20409;-77
2021/07/02 03:33:56;;;;;;;6.03;3.57;;;;;;;10.84;98.12;95995.28;5032337;28;20411;-77
2021/07/02 03:36:21;;;;;;;4.25;3.80;;;;;;;10.73;99.27;95992.50;5037819;28;20415;-76
2021/07/02 03:38:48;;;;;;;6.30;4.40;;;;;;;10.74;100.00;95990.72;5038581;28;20441;-77
2021/07/02 03:41:14;;;;;;;5.93;3.97;;;;;;;10.88;100.00;96001.09;5034937;28;20555;-76
2021/07/02 03:43:40;;;;;;;6.00;4.40;;;;;;;10.76;100.00;95994.91;5033028;28;20514;-76
2021/07/02 03:46:05;;;;;;;5.60;4.40;;;;;;;10.68;100.00;95998.84;5032024;28;20419;-77
2021/07/02 03:48:31;;;;;;;4.83;4.33;;;;;;;10.69;100.00;95995.38;5032226;28;20496;-77
2021/07/02 03:50:56;;;;;;;6.70;4.33;;;;;;;10.63;100.00;95989.59;5030913;28;20754;-77
2021/07/02 03:53:21;;;;;;;5.27;4.23;;;;;;;10.61;100.00;95991.47;5032096;28;20415;-77
2021/07/02 03:55:48;;;;;;;7.22;4.38;;;;;;;10.57;100.00;96002.94;5030656;28;20438;-76
2021/07/02 03:58:14;;;;;;;4.32;3.53;;;;;;;10.48;100.00;96000.03;5032276;28;20421;-77
2021/07/02 04:00:39;;;;;;;4.35;3.92;;;;;;;10.45;100.00;96008.81;5031912;28;20842;-76
2021/07/02 04:03:05;;;;;;;5.70;3.70;;;;;;;10.47;100.00;96004.41;5031787;28;20426;-75
2021/07/02 04:05:31;;;;;;;7.32;4.35;;;;;;;10.52;100.00;96007.53;5031623;28;20419;-75
2021/07/02 04:07:56;;;;;;;6.87;4.10;;;;;;;10.68;100.00;96006.63;5031759;28;20831;-75
2021/07/02 04:10:22;;;;;;;5.63;3.80;;;;;;;10.74;100.00;95999.31;5031496;28;20526;-76
2021/07/02 04:12:48;;;;;;;4.78;4.20;;;;;;;10.71;100.00;96001.28;5031898;28;20486;-77
2021/07/02 04:15:14;;;;;;;3.92;3.53;;;;;;;10.82;100.00;96004.06;5031263;28;20419;-76
2021/07/02 04:17:39;;;;;;;4.22;3.78;;;;;;;10.84;100.00;96008.22;5031529;28;20417;-77
2021/07/02 04:20:08;;;;;;;6.60;4.05;;;;;;;10.81;100.00;96003.22;5030185;28;20462;-77
2021/07/02 04:22:33;;;;;;;4.63;3.65;;;;;;;10.86;100.00;96002.94;5030098;28;20929;-76
2021/07/02 04:24:59;;;;;;;4.97;3.58;;;;;;;10.94;100.00;96003.34;5031378;28;20448;-77
2021/07/02 04:27:24;;;;;;;4.28;3.78;;;;;;;10.94;100.00;96008.50;5031044;28;20904;-77
2021/07/02 04:29:51;;;;;;;4.63;3.95;;;;;;;10.97;100.00;96012.66;5031419;28;20494;-76
2021/07/02 04:32:17;;;;;;;6.30;3.90;;;;;;;11.08;100.00;96015.44;5029991;28;20419;-76
2021/07/02 04:34:42;;;;;;;4.50;4.10;;;;;;;11.08;100.00;96015.44;5031351;28;20673;-76
2021/07/02 04:37:08;;;;;;;4.57;3.85;;;;;;;11.12;100.00;96016.91;5029721;28;20501;-76
2021/07/02 04:39:33;;;;;;;4.82;3.60;;;;;;;11.14;100.00;96010.72;5031006;28;20782;-76
2021/07/02 04:41:58;;;;;;;5.28;4.18;;;;;;;11.18;100.00;96013.97;5031029;28;20434;-76
2021/07/02 04:44:24;;;;;;;5.03;3.80;;;;;;;11.19;100.00;96022.56;5031210;28;20418;-76
2021/07/02 04:46:51;;;;;;;4.40;4.00;;;;;;;11.27;100.00;96016.00;5031603;28;20414;-76
2021/07/02 04:49:16;;;;;;;5.45;4.60;;;;;;;11.19;100.00;96020.78;5031239;28;20419;-76
2021/07/02 04:51:41;;;;;;;5.73;3.90;;;;;;;11.17;100.00;96020.06;5029880;28;20415;-75
2021/07/02 04:54:07;;;;;;;5.87;4.23;;;;;;;11.07;100.00;96019.78;5031175;28;20418;-76
2021/07/02 04:56:33;;;;;;;6.10;4.30;;;;;;;11.00;100.00;96023.69;5030783;28;20825;-76
2021/07/02 04:59:00;;;;;;;5.57;4.93;;;;;;;10.98;100.00;96020.38;5029805;28;20758;-76
2021/07/02 05:01:25;;;;;;;6.30;5.53;;;;;;;10.98;100.00;96015.19;5025628;28;20470;-76
2021/07/02 05:03:52;;;;;;;7.38;5.32;;;;;;;10.93;100.00;96029.31;5011468;28;20448;-76
2021/07/02 05:06:18;;;;;;;6.55;5.50;;;;;;;11.07;100.00;96024.16;5016953;28;20443;-75
2021/07/02 05:08:44;;;;;;;6.60;5.90;;;;;;;11.11;100.00;96017.84;5030736;28;20464;-76
2021/07/02 05:11:10;;;;;;;7.10;6.40;;;;;;;11.17;100.00;96025.25;5029683;28;20956;-76
2021/07/02 05:13:36;;;;;;;16.60;6.00;;;;;;;11.29;100.00;96024.50;5029805;28;20493;-77
2021/07/02 05:16:01;;;;;;;6.90;6.20;;;;;;;11.25;100.00;96023.03;5025991;28;20432;-77
2021/07/02 05:18:27;;;;;;;8.83;6.07;;;;;;;11.46;100.00;96022.59;5019312;28;20423;-77
2021/07/02 05:20:53;;;;;;;7.77;6.20;;;;;;;11.39;100.00;96028.19;5027649;28;20564;-76
2021/07/02 05:23:19;;;;;;;7.57;6.07;;;;;;;11.48;100.00;96028.56;5012608;28;20444;-77
2021/07/02 05:25:44;;;;;;;7.28;5.45;;;;;;;11.26;100.00;96034.22;5010537;28;20460;-76
2021/07/02 05:28:09;;;;;;;6.43;5.27;;;;;;;11.32;100.00;96029.50;5028078;28;20407;-77
2021/07/02 05:30:35;;;;;;;6.97;5.20;;;;;;;11.43;100.00;96035.78;5030616;28;20799;-77
2021/07/02 05:33:00;;;;;;;6.53;5.50;;;;;;;11.45;100.00;96033.91;5030725;28;20768;-76
2021/07/02 05:35:26;;;;;;;8.80;6.00;;;;;;;11.49;100.00;96036.22;5030549;28;20419;-77
2021/07/02 05:37:53;;;;;;;8.00;5.65;;;;;;;11.69;100.00;96045.38;5046053;28;20515;-77
2021/07/02 05:40:19;;;;;;;7.30;5.70;;;;;;;11.83;100.00;96034.13;5050555;28;20429;-77
2021/07/02 05:42:45;;;;;;;7.88;5.68;;;;;;;12.10;100.00;96034.97;5048786;28;20418;-77
2021/07/02 05:45:11;;;;;;;6.45;5.57;;;;;;;12.20;100.00;96037.81;5031149;28;20451;-76
2021/07/02 05:47:37;;;;;;;6.07;5.57;;;;;;;12.58;100.00;96042.25;5031148;28;20828;-76
2021/07/02 05:50:04;;;;;;;8.68;5.63;;;;;;;12.65;98.40;96038.31;5041619;28;20410;-76
2021/07/02 05:52:30;;;;;;;7.25;5.75;;;;;;;12.68;98.78;96040.72;5029980;28;20410;-77
2021/07/02 05:54:56;;;;;;;6.37;5.57;;;;;;;12.95;97.94;96032.81;5030606;28;20881;-75
2021/07/02 05:57:22;;;;;;;8.23;5.55;;;;;;;13.00;96.30;96030.72;5026616;28;20414;-75
2021/07/02 05:59:47;;;;;;;8.23;5.50;;;;;;;13.08;96.28;96028.44;5026799;28;20427;-75
2021/07/02 06:02:12;;;;;;;7.53;6.30;;;;;;;13.09;97.13;96026.69;5018235;28;20429;-75
2021/07/02 06:04:38;;;;;;;6.53;5.23;;;;;;;13.26;97.47;96034.19;5025508;28;20422;-75
2021/07/02 06:07:03;;;;;;;6.13;5.53;;;;;;;13.38;97.40;96029.06;5029538;28;20423;-75
2021/07/02 06:09:29;;;;;;;7.00;5.55;;;;;;;13.36;95.59;96033.56;5030159;28;20419;-75
2021/07/02 06:11:56;;;;;;;8.07;6.15;;;;;;;13.19;97.38;96039.88;5028596;28;20449;-78
2021/07/02 06:14:22;;;;;;;7.93;5.57;;;;;;;13.45;96.98;96040.69;5029535;28;20422;-74
2021/07/02 06:16:47;;;;;;;8.50;6.05;;;;;;;13.45;96.97;96044.13;5029717;28;20442;-75
2021/07/02 06:19:13;;;;;;;6.63;5.57;;;;;;;13.65;95.91;96045.34;5030018;28;21140;-79
2021/07/02 06:21:38;;;;;;;9.27;6.40;;;;;;;13.44;97.10;96044.25;5029374;28;20427;-75
2021/07/02 06:24:04;;;;;;;6.60;5.53;;;;;;;13.49;97.83;96049.94;5029610;28;20419;-75
2021/07/02 06:26:29;;;;;;;7.40;5.93;;;;;;;13.51;98.63;96046.31;5028055;28;20419;-75
2021/07/02 06:28:56;;;;;;;7.17;6.30;;;;;;;13.51;99.15;96050.69;5029576;28;20832;-75
2021/07/02 06:31:21;;;;;;;9.02;5.88;;;;;;;13.75;97.37;96055.94;5028335;28;20415;-75
2021/07/02 06:33:47;;;;;;;9.30;5.97;;;;;;;14.18;95.38;96061.50;5032182;28;20438;-75
2021/07/02 06:36:12;;;;;;;10.20;6.10;;;;;;;14.57;94.53;96051.72;5031783;28;20453;-75
2021/07/02 06:38:38;;;;;;;9.80;6.43;;;;;;;14.76;92.15;96057.25;5048638;28;20489;-74
2021/07/02 06:41:03;;;;;;;6.90;5.78;;;;;;;14.98;90.95;96061.69;5061472;28;20429;-75
2021/07/02 06:43:29;;;;;;;6.90;5.73;;;;;;;15.18;86.77;96054.94;5053817;28;20449;-75
2021/07/02 06:45:55;;;;;;;7.70;5.27;;;;;;;15.23;85.99;96058.00;5037900;28;20415;-74
2021/07/02 06:48:21;;;;;;;5.93;5.10;;;;;;;15.63;86.53;96059.31;5034570;28;20421;-75
2021/07/02 06:50:46;;;;;;;6.00;5.30;;;;;;;15.60;83.02;96063.00;5033610;28;20498;-75
2021/07/02 06:53:12;;;;;;;6.55;5.05;;;;;;;15.75;81.64;96057.56;5030971;28;20927;-75
2021/07/02 06:55:39;;;;;;;6.35;5.50;;;;;;;15.42;80.71;96062.66;5021652;28;20424;-75
2021/07/02 06:58:04;;;;;;;5.10;4.47;;;;;;;15.52;83.03;96067.16;5026867;28;20469;-75
2021/07/02 07:00:31;;;;;;;9.82;5.32;;;;;;;15.54;82.41;96063.50;5032565;28;20823;-75
2021/07/02 07:02:57;;;;;;;5.25;4.75;;;;;;;15.61;78.49;96069.03;5021196;28;20424;-75
2021/07/02 07:05:23;;;;;;;5.18;4.68;;;;;;;15.86;77.74;96065.38;5032032;28;20502;-75
2021/07/02 07:07:49;;;;;;;6.60;4.93;;;;;;;15.98;74.89;96069.63;5032984;28;20506;-75
2021/07/02 07:10:14;;;;;;;9.18;5.10;;;;;;;15.86;76.58;96060.97;5033338;28;20426;-75
2021/07/02 07:12:40;;;;;;;7.60;4.95;;;;;;;15.69;77.32;96066.72;5033216;28;20928;-75
2021/07/02 07:15:06;;;;;;;6.10;4.93;;;;;;;15.67;76.81;96064.22;5025722;28;20459;-75
2021/07/02 07:17:32;;;;;;;6.70;5.13;;;;;;;15.39;75.21;96065.50;5024116;28;20425;-76
2021/07/02 07:19:59;;;;;;;5.40;4.25;;;;;;;15.50;76.93;96072.53;5013168;28;20455;-76
2021/07/02 07:22:25;;;;;;;5.80;4.90;;;;;;;15.63;76.63;96072.38;5027449;28;20788;-76
2021/07/02 07:24:50;;;;;;;6.07;5.37;;;;;;;15.47;77.91;96070.97;5031349;28;20419;-76
2021/07/02 07:27:16;;;;;;;6.67;5.20;;;;;;;15.30;76.62;96078.44;5032293;28;20463;-75
2021/07/02 07:29:41;;;;;;;6.40;4.87;;;;;;;14.96;75.91;96081.00;5031343;28;20478;-76
2021/07/02 07:32:07;;;;;;;6.13;4.83;;;;;;;15.27;77.19;96079.50;5032691;28;20410;-75
2021/07/02 07:34:48;;;;;;;8.13;5.43;;;;;;;15.71;72.42;96078.69;5032545;23;20416;-79
2021/07/02 07:44:32;;;;;;;7.85;5.63;;;;;;;16.50;70.07;96073.28;5000317;28;20519;-79
2021/07/02 07:47:23;;;;;;;6.90;4.70;;;;;;;16.48;70.29;96080.41;5013886;28;20415;-79
2021/07/02 07:50:00;;;;;;;7.07;5.32;;;;;;;16.41;65.64;96077.47;4918596;29;20439;-79
2021/07/02 07:52:46;;;;;;;5.82;4.82;;;;;;;16.41;69.17;96085.31;4921326;29;20442;-79
2021/07/02 07:55:19;;;;;;;8.18;5.40;;;;;;;16.66;66.17;96078.91;4990945;28;20424;-79
2021/07/02 07:58:02;;;;;;;9.40;5.25;;;;;;;16.88;65.08;96078.00;5000833;28;20445;-80
2021/07/02 08:01:32;;;;;;;;;;;;;;;;;;;;;
2021/07/02 08:04:30;;;;;;;6.50;5.25;;;;;;;16.87;67.51;96078.97;5020583;28;20511;-80
2021/07/02 08:08:00;;;;;;;7.50;5.45;;;;;;;16.84;66.14;96088.84;5005045;28;20428;-82
2021/07/02 08:11:09;;;;;;;5.90;4.88;;;;;;;16.51;65.32;96090.63;5023513;28;20412;-80
2021/07/02 08:14:00;;;;;;;6.85;5.40;;;;;;;16.80;65.05;96083.03;5017710;28;20419;-80
2021/07/02 08:16:42;;;;;;;5.32;4.82;;;;;;;16.86;61.60;96092.97;5037771;28;20407;-80
2021/07/02 08:19:46;;;;;;;6.10;5.43;;;;;;;17.24;62.34;96088.13;5039865;28;20494;-80
2021/07/02 08:22:33;;;;;;;6.50;5.05;;;;;;;17.26;60.76;96087.03;5030460;28;20419;-81
2021/07/02 08:24:59;;;;;;;7.25;5.35;;;;;;;17.39;60.90;96085.06;4995546;28;20794;-80
2021/07/02 08:27:28;;;;;;;6.33;4.83;;;;;;;17.81;60.61;96095.44;5004081;28;20429;-79
2021/07/02 08:29:55;;;;;;;6.80;4.80;;;;;;;17.55;60.88;96091.59;4995490;28;20417;-81
2021/07/02 08:32:21;;;;;;;9.05;5.10;;;;;;;17.25;61.82;96093.25;4995984;28;20420;-81
2021/07/02 08:34:46;;;;;;;6.47;5.20;;;;;;;17.41;62.37;96095.38;4996568;28;20424;-81
2021/07/02 08:37:12;;;;;;;6.30;4.57;;;;;;;17.79;57.86;96097.34;5000731;28;20473;-81
2021/07/02 08:39:38;;;;;;;7.80;5.35;;;;;;;18.27;57.21;96101.06;5017694;28;20449;-81
2021/07/02 08:42:04;;;;;;;12.00;5.45;;;;;;;18.38;57.11;96093.09;5017888;28;20431;-81
2021/07/02 08:44:31;;;;;;;7.93;4.80;;;;;;;18.19;57.01;96091.25;5007912;28;20437;-81
2021/07/02 08:46:59;;;;;;;5.35;4.80;;;;;;;18.03;59.68;96094.41;5014296;28;20428;-81
2021/07/02 08:49:28;;;;;;;7.28;5.00;;;;;;;17.98;58.17;96093.97;5015138;28;20423;-81
2021/07/02 08:51:54;;;;;;;5.90;4.80;;;;;;;17.87;58.50;96094.94;5013668;28;20977;-81
2021/07/02 08:54:20;;;;;;;5.53;4.80;;;;;;;17.44;61.02;96092.50;5004359;28;20442;-81
2021/07/02 08:56:58;;;;;;;5.10;4.60;;;;;;;16.83;61.63;96097.63;5012626;28;20499;-81
2021/07/02 08:59:24;;;;;;;7.25;5.13;;;;;;;16.80;62.24;96100.53;5013883;28;20444;-81
2021/07/02 09:01:49;;;;;;;7.40;5.18;;;;;;;17.12;60.99;96098.66;4996049;28;20421;-81
2021/07/02 09:04:19;;;;;;;5.97;4.40;;;;;;;17.79;59.16;96102.59;4996170;28;20786;-81
2021/07/02 09:06:59;;;;;;;5.80;3.95;;;;;;;17.82;54.72;96099.72;5013848;28;20425;-81
2021/07/02 09:09:24;;;;;;;5.43;4.20;;;;;;;18.27;55.99;96101.06;4995468;28;20881;-81
2021/07/02 09:11:49;;;;;;;12.80;4.80;;;;;;;17.61;55.19;96096.28;5015202;28;20428;-80
2021/07/02 09:14:22;;;;;;;6.40;4.10;;;;;;;17.40;55.55;96093.72;5014653;28;20501;-79
2021/07/02 09:16:48;;;;;;;4.78;4.20;;;;;;;17.97;56.48;96099.34;4994902;28;20424;-80
2021/07/02 09:19:24;;;;;;;6.50;4.07;;;;;;;18.21;55.09;96112.13;4995159;28;20416;-79
2021/07/02 09:21:51;;;;;;;6.60;4.22;;;;;;;18.68;50.81;96109.66;5013419;28;20966;-79
2021/07/02 09:24:36;;;;;;;5.90;4.05;;;;;;;18.90;52.06;96098.91;5011501;28;20468;-79
2021/07/02 09:27:21;;;;;;;6.20;4.57;;;;;;;19.06;52.40;96099.19;4993314;28;20433;-78
2021/07/02 09:29:59;;;;;;;5.18;4.30;;;;;;;18.70;52.16;96098.09;5011726;28;20413;-76
2021/07/02 09:32:24;;;;;;;701.38;94.70;;;;;;;19.25;50.61;96097.50;4992961;28;20425;-74
2021/07/02 09:34:55;;;;;;;13.30;4.90;;;;;;;19.08;52.41;96099.88;5010455;28;20431;-73
2021/07/02 09:37:21;;;;;;;21.20;6.00;;;;;;;19.50;49.75;96096.03;5013668;28;20415;-73
2021/07/02 09:39:47;;;;;;;6.47;4.70;;;;;;;18.68;49.32;96109.66;5031346;28;20415;-75
2021/07/02 09:42:22;;;;;;;5.43;4.18;;;;;;;18.40;51.79;96106.06;5030231;28;20433;-74
2021/07/02 09:45:02;;;;;;;8.45;4.55;;;;;;;19.01;50.97;96111.91;5030238;28;20419;-76
2021/07/02 09:47:28;;;;;;;5.85;4.55;;;;;;;18.78;50.57;96106.13;5014457;28;20434;-77
2021/07/02 09:50:14;;;;;;;7.37;5.10;;;;;;;19.55;51.23;96101.69;5012898;28;20481;-76
2021/07/02 09:52:48;;;;;;;5.87;4.17;;;;;;;19.45;48.31;96104.34;5031563;28;20431;-77
2021/07/02 09:55:14;;;;;;;4.30;3.83;;;;;;;18.96;49.51;96116.75;5031940;28;20419;-80
2021/07/02 09:57:39;;;;;;;5.10;3.72;;;;;;;18.55;51.49;96110.78;5032260;28;20427;-78
2021/07/02 10:00:07;;;;;;;7.03;4.53;;;;;;;18.84;49.97;96116.06;5032188;28;20407;-79
2021/07/02 10:02:33;;;;;;;4.65;4.15;;;;;;;18.88;49.24;96114.00;5032526;28;20449;-78
2021/07/02 10:05:00;;;;;;;6.17;4.10;;;;;;;19.35;49.21;96106.16;5032648;28;20434;-80
2021/07/02 10:07:27;;;;;;;5.68;3.95;;;;;;;19.44;47.84;96107.94;5013952;28;20798;-80
2021/07/02 10:09:52;;;;;;;4.95;3.88;;;;;;;19.59;50.42;96105.69;5017707;28;20482;-80
2021/07/02 10:12:19;;;;;;;5.10;4.40;;;;;;;18.93;53.03;96118.81;5016941;28;20917;-80
2021/07/02 10:14:48;;;;;;;6.20;4.60;;;;;;;19.20;51.21;96118.09;5000240;28;20875;-81
2021/07/02 10:17:13;;;;;;;9.02;4.57;;;;;;;19.26;51.25;96112.28;5000516;28;20420;-81
2021/07/02 10:19:41;;;;;;;5.45;4.32;;;;;;;19.07;49.86;96124.47;4998149;28;20437;-81
2021/07/02 10:22:08;;;;;;;6.97;4.25;;;;;;;19.28;49.17;96115.56;5013112;28;20459;-81
2021/07/02 10:24:36;;;;;;;5.03;4.33;;;;;;;19.26;50.98;96114.91;5015061;28;20431;-81
2021/07/02 10:27:03;;;;;;;5.72;4.10;;;;;;;18.82;52.53;96131.09;5015358;28;20428;-81
2021/07/02 10:29:31;;;;;;;5.93;4.32;;;;;;;18.68;54.17;96125.41;5016063;28;20408;-81
2021/07/02 10:31:57;;;;;;;4.97;4.47;;;;;;;19.48;52.19;96109.31;5015121;28;20830;-81
2021/07/02 10:34:24;;;;;;;5.95;4.90;;;;;;;20.24;48.96;96116.19;5015376;28;20423;-81
2021/07/02 10:36:50;;;;;;;4.75;4.10;;;;;;;20.51;50.20;96115.38;5016134;28;20424;-81
2021/07/02 10:39:29;;;;;;;4.93;4.38;;;;;;;20.45;47.67;96111.50;5035148;28;20824;-82
2021/07/02 10:42:07;;;;;;;5.13;4.20;;;;;;;19.93;53.55;96118.31;5018039;28;20454;-82
2021/07/02 10:44:32;;;;;;;7.47;4.60;;;;;;;19.75;49.35;96116.44;5034618;28;20498;-83
2021/07/02 10:47:02;;;;;;;4.93;4.10;;;;;;;19.94;50.88;96115.53;5034740;28;20530;-83
2021/07/02 10:49:35;;;;;;;4.88;4.20;;;;;;;20.52;52.67;96119.66;5034617;28;20415;-83
2021/07/02 10:52:20;;;;;;;4.40;3.90;;;;;;;20.11;49.21;96108.69;5032873;28;20681;-83
2021/07/02 10:54:46;;;;;;;5.63;3.97;;;;;;;20.07;46.00;96112.56;5034551;28;20423;-81
2021/07/02 10:57:17;;;;;;;5.93;4.25;;;;;;;19.88;50.19;96118.75;5034888;28;20509;-82
2021/07/02 11:00:06;;;;;;;5.47;4.50;;;;;;;19.98;47.38;96122.16;5033309;28;20458;-83
2021/07/02 11:02:31;;;;;;;5.35;4.30;;;;;;;20.08;48.12;96114.22;5019052;28;20423;-81
2021/07/02 11:04:58;;;;;;;6.68;4.40;;;;;;;20.29;47.57;96116.59;5021507;28;20921;-83
2021/07/02 11:07:44;;;;;;;5.40;4.10;;;;;;;19.69;48.89;96124.91;5040361;28;20946;-80
2021/07/02 11:10:11;;;;;;;7.00;4.05;;;;;;;19.77;46.76;96117.13;5031311;28;20477;-82
2021/07/02 11:13:00;;;;;;;4.95;3.95;;;;;;;19.53;47.71;96119.41;5018775;28;20434;-83
2021/07/02 11:15:26;;;;;;;5.47;4.20;;;;;;;19.40;47.63;96129.41;5017336;28;20790;-83
2021/07/02 11:18:10;;;;;;;6.03;4.10;;;;;;;19.70;48.89;96123.94;5017187;28;20419;-83
2021/07/02 11:20:36;;;;;;;5.32;4.40;;;;;;;20.04;50.05;96126.00;5017455;28;20493;-83
2021/07/02 11:23:19;;;;;;;4.60;4.03;;;;;;;19.65;49.08;96118.28;5017503;28;20451;-83
2021/07/02 11:25:55;;;;;;;8.77;4.85;;;;;;;19.82;49.02;96120.16;5017136;28;20581;-83
2021/07/02 11:28:40;;;;;;;6.70;4.47;;;;;;;19.92;46.98;96119.28;5018277;28;20431;-83
2021/07/02 11:31:08;;;;;;;7.65;4.50;;;;;;;19.79;47.08;96117.81;5016938;28;20464;-83
2021/07/02 11:33:34;;;;;;;6.20;4.60;;;;;;;19.90;47.94;96124.69;5016737;28;20470;-82
2021/07/02 11:36:09;;;;;;;8.13;4.72;;;;;;;20.36;53.07;96120.31;5016855;28;20532;-82
2021/07/02 11:38:44;;;;;;;6.82;4.30;;;;;;;20.23;46.62;96125.06;5035688;28;20423;-82
2021/07/02 11:41:19;;;;;;;5.13;4.10;;;;;;;19.94;48.58;96115.53;5037147;28;20494;-81
2021/07/02 11:43:46;;;;;;;4.93;4.35;;;;;;;20.05;49.30;96122.41;5018329;28;20438;-82
2021/07/02 11:46:13;;;;;;;6.18;4.75;;;;;;;20.06;49.08;96124.06;5035904;28;20418;-82